Main page
METAR-TAF:

METAR-TAF

Airports :

Termez, Uzbekistan

Termez Airport

latitude: 37-14N, longitude: 067-16E, elevation: 302 m

Current weather observation

The report was made 59 minutes ago, at 10:00 UTC
Wind 2 kt from variable directions
Temperature 13°C
Humidity 35%
Pressure 1025 hPa
Visibility: 8000 m

METAR: UTST 181000Z VRB02KT 8000 NSC 13/M02 Q1025 R88/CLRD70 NOSIG

Time: 15:59 (10:59 UTC)

Forecast

The report was made 5 hours and 59 minutes ago, at 05:00 UTC
Forecast valid from 18 at 06 UTC to 19 at 06 UTC
Wind 6 kt from variable directions
Visibility: 6000 m
Temporary
from 18 at 06 UTC to 18 at 15 UTC
Wind 8 kt from the West/Southwest with gusts up to 18 kt
Visibility: 3000 m
Scattered clouds at a height of 6000 ft, Cumulonimbus.
Broken clouds at a height of 10000 ft
haze

TAF: UTST 180500Z 1806/1906 VRB06KT 6000 NSC TEMPO 1806/1815 25008G18KT 3000 HZ SCT060CB BKN100

Weather observations and forecasts of more than 4000 airports (METAR and TAF reports).

The available stations are represented by yellow and red dots on the map.

Hover mouse over dot to see the name of the station.

Then click to see weather observations and forecasts.

To change the map : click on the green buttons with a black cross to zoom in, on the green button with a dash to zoom out, or on the green arrows for adjacent maps.


METAR-TAF: